sensor_id;sensor_type;location;lat;lon;timestamp;pressure;altitude;pressure_sealevel;temperature;humidity
39265;BME280;42646;51.910;7.724;2024-01-15T00:02:06;99472.44;;;1.88;100.00
39265;BME280;42646;51.910;7.724;2024-01-15T00:04:36;99470.66;;;1.88;100.00
39265;BME280;42646;51.910;7.724;2024-01-15T00:07:04;99466.22;;;1.89;100.00
39265;BME280;42646;51.910;7.724;2024-01-15T00:09:32;99467.69;;;1.93;100.00
39265;BME280;42646;51.910;7.724;2024-01-15T00:12:00;99458.66;;;1.97;100.00
39265;BME280;42646;51.910;7.724;2024-01-15T00:14:28;99457.53;;;1.88;100.00
39265;BME280;42646;51.910;7.724;2024-01-15T00:16:57;99463.53;;;1.91;100.00
39265;BME280;42646;51.910;7.724;2024-01-15T00:19:25;99449.78;;;1.87;100.00
39265;BME280;42646;51.910;7.724;2024-01-15T00:21:54;99442.38;;;1.81;100.00
39265;BME280;42646;51.910;7.724;2024-01-15T00:24:21;99437.97;;;1.81;100.00
39265;BME280;42646;51.910;7.724;2024-01-15T00:26:49;99436.16;;;1.82;100.00
39265;BME280;42646;51.910;7.724;2024-01-15T00:29:16;99435.66;;;1.77;100.00
39265;BME280;42646;51.910;7.724;2024-01-15T00:31:44;99438.28;;;1.77;100.00
39265;BME280;42646;51.910;7.724;2024-01-15T00:34:13;99431.16;;;1.79;100.00
39265;BME280;42646;51.910;7.724;2024-01-15T00:36:41;99431.72;;;1.71;100.00
39265;BME280;42646;51.910;7.724;2024-01-15T00:39:08;99427.75;;;1.66;100.00
39265;BME280;42646;51.910;7.724;2024-01-15T00:41:38;99434.91;;;1.64;100.00
39265;BME280;42646;51.910;7.724;2024-01-15T00:44:05;99433.22;;;1.63;100.00
39265;BME280;42646;51.910;7.724;2024-01-15T00:46:42;99431.78;;;1.58;100.00
39265;BME280;42646;51.910;7.724;2024-01-15T00:49:10;99428.31;;;1.58;100.00
39265;BME280;42646;51.910;7.724;2024-01-15T00:51:41;99432.72;;;1.57;100.00
39265;BME280;42646;51.910;7.724;2024-01-15T00:54:09;99430.09;;;1.57;100.00
39265;BME280;42646;51.910;7.724;2024-01-15T00:56:36;99432.00;;;1.55;100.00
39265;BME280;42646;51.910;7.724;2024-01-15T00:59:04;99436.50;;;1.53;100.00
39265;BME280;42646;51.910;7.724;2024-01-15T01:01:32;99433.81;;;1.55;100.00
39265;BME280;42646;51.910;7.724;2024-01-15T01:03:59;99430.94;;;1.58;100.00
39265;BME280;42646;51.910;7.724;2024-01-15T01:06:27;99421.28;;;1.58;100.00
39265;BME280;42646;51.910;7.724;2024-01-15T01:09:00;99426.78;;;1.55;100.00
39265;BME280;42646;51.910;7.724;2024-01-15T01:11:28;99422.03;;;1.60;100.00
39265;BME280;42646;51.910;7.724;2024-01-15T01:13:56;99413.53;;;1.57;100.00
39265;BME280;42646;51.910;7.724;2024-01-15T01:16:23;99412.38;;;1.61;100.00
39265;BME280;42646;51.910;7.724;2024-01-15T01:18:51;99407.84;;;1.63;100.00
39265;BME280;42646;51.910;7.724;2024-01-15T01:21:19;99403.91;;;1.57;100.00
39265;BME280;42646;51.910;7.724;2024-01-15T01:23:47;99405.69;;;1.57;100.00
39265;BME280;42646;51.910;7.724;2024-01-15T01:26:17;99414.16;;;1.60;100.00
39265;BME280;42646;51.910;7.724;2024-01-15T01:28:45;99405.69;;;1.57;100.00
39265;BME280;42646;51.910;7.724;2024-01-15T01:31:12;99405.56;;;1.58;100.00
39265;BME280;42646;51.910;7.724;2024-01-15T01:33:40;99400.94;;;1.62;100.00
39265;BME280;42646;51.910;7.724;2024-01-15T01:36:08;99399.66;;;1.68;100.00
39265;BME280;42646;51.910;7.724;2024-01-15T01:38:36;99408.47;;;1.67;100.00
39265;BME280;42646;51.910;7.724;2024-01-15T01:41:04;99395.81;;;1.60;100.00
39265;BME280;42646;51.910;7.724;2024-01-15T01:43:33;99394.13;;;1.59;100.00
39265;BME280;42646;51.910;7.724;2024-01-15T01:46:01;99387.97;;;1.60;100.00
39265;BME280;42646;51.910;7.724;2024-01-15T01:48:30;99395.97;;;1.70;100.00
39265;BME280;42646;51.910;7.724;2024-01-15T01:51:01;99402.22;;;1.56;100.00
39265;BME280;42646;51.910;7.724;2024-01-15T01:53:31;99391.75;;;1.56;100.00
39265;BME280;42646;51.910;7.724;2024-01-15T01:56:00;99388.28;;;1.56;100.00
39265;BME280;42646;51.910;7.724;2024-01-15T01:58:29;99388.44;;;1.66;100.00
39265;BME280;42646;51.910;7.724;2024-01-15T02:00:59;99378.84;;;1.53;100.00
39265;BME280;42646;51.910;7.724;2024-01-15T02:03:30;99383.25;;;1.53;100.00
39265;BME280;42646;51.910;7.724;2024-01-15T02:05:59;99384.94;;;1.54;100.00
39265;BME280;42646;51.910;7.724;2024-01-15T02:08:27;99392.06;;;1.52;100.00
39265;BME280;42646;51.910;7.724;2024-01-15T02:10:54;99385.66;;;1.56;100.00
39265;BME280;42646;51.910;7.724;2024-01-15T02:13:21;99399.81;;;1.53;100.00
39265;BME280;42646;51.910;7.724;2024-01-15T02:15:49;99397.56;;;1.49;100.00
39265;BME280;42646;51.910;7.724;2024-01-15T02:18:18;99392.78;;;1.54;100.00
39265;BME280;42646;51.910;7.724;2024-01-15T02:20:46;99394.81;;;1.50;100.00
39265;BME280;42646;51.910;7.724;2024-01-15T02:23:16;99395.53;;;1.52;100.00
39265;BME280;42646;51.910;7.724;2024-01-15T02:25:44;99391.06;;;1.66;100.00
39265;BME280;42646;51.910;7.724;2024-01-15T02:28:13;99390.84;;;1.69;100.00
39265;BME280;42646;51.910;7.724;2024-01-15T02:30:42;99389.00;;;1.58;100.00
39265;BME280;42646;51.910;7.724;2024-01-15T02:33:11;99386.72;;;1.53;100.00
39265;BME280;42646;51.910;7.724;2024-01-15T02:35:39;99391.13;;;1.53;100.00
39265;BME280;42646;51.910;7.724;2024-01-15T02:38:07;99392.06;;;1.52;100.00
39265;BME280;42646;51.910;7.724;2024-01-15T02:40:36;99387.66;;;1.52;100.00
39265;BME280;42646;51.910;7.724;2024-01-15T02:43:04;99396.28;;;1.54;100.00
39265;BME280;42646;51.910;7.724;2024-01-15T02:45:31;99393.22;;;1.48;100.00
39265;BME280;42646;51.910;7.724;2024-01-15T02:47:59;99391.47;;;1.48;100.00
39265;BME280;42646;51.910;7.724;2024-01-15T02:50:27;99391.47;;;1.48;100.00
39265;BME280;42646;51.910;7.724;2024-01-15T02:52:55;99399.94;;;1.52;100.00
39265;BME280;42646;51.910;7.724;2024-01-15T02:55:22;99392.19;;;1.50;100.00
39265;BME280;42646;51.910;7.724;2024-01-15T02:57:51;99385.16;;;1.51;100.00
39265;BME280;42646;51.910;7.724;2024-01-15T03:00:19;99388.03;;;1.59;100.00
39265;BME280;42646;51.910;7.724;2024-01-15T03:02:48;99396.16;;;1.56;100.00
39265;BME280;42646;51.910;7.724;2024-01-15T03:05:17;99396.66;;;1.61;100.00
39265;BME280;42646;51.910;7.724;2024-01-15T03:07:46;99394.50;;;1.55;100.00
39265;BME280;42646;51.910;7.724;2024-01-15T03:10:14;99393.28;;;1.59;100.00
39265;BME280;42646;51.910;7.724;2024-01-15T03:12:41;99391.94;;;1.53;100.00
39265;BME280;42646;51.910;7.724;2024-01-15T03:15:11;99388.50;;;1.53;100.00
39265;BME280;42646;51.910;7.724;2024-01-15T03:17:41;99376.34;;;1.52;100.00
39265;BME280;42646;51.910;7.724;2024-01-15T03:20:10;99385.28;;;1.49;100.00
39265;BME280;42646;51.910;7.724;2024-01-15T03:22:37;99394.94;;;1.49;100.00
39265;BME280;42646;51.910;7.724;2024-01-15T03:25:06;99386.06;;;1.63;100.00
39265;BME280;42646;51.910;7.724;2024-01-15T03:27:34;99385.38;;;1.48;100.00
39265;BME280;42646;51.910;7.724;2024-01-15T03:30:02;99385.63;;;1.45;100.00
39265;BME280;42646;51.910;7.724;2024-01-15T03:32:31;99392.75;;;1.43;100.00
39265;BME280;42646;51.910;7.724;2024-01-15T03:34:59;99390.63;;;1.48;100.00
39265;BME280;42646;51.910;7.724;2024-01-15T03:37:27;99390.97;;;1.43;100.00
39265;BME280;42646;51.910;7.724;2024-01-15T03:39:54;99388.94;;;1.47;100.00
39265;BME280;42646;51.910;7.724;2024-01-15T03:42:23;99386.94;;;1.50;100.00
39265;BME280;42646;51.910;7.724;2024-01-15T03:44:50;99388.13;;;1.46;100.00
39265;BME280;42646;51.910;7.724;2024-01-15T03:47:18;99393.75;;;1.53;100.00
39265;BME280;42646;51.910;7.724;2024-01-15T03:49:47;99391.47;;;1.48;100.00
39265;BME280;42646;51.910;7.724;2024-01-15T03:52:15;99392.91;;;1.52;100.00
39265;BME280;42646;51.910;7.724;2024-01-15T03:54:42;99381.38;;;1.55;100.00
39265;BME280;42646;51.910;7.724;2024-01-15T03:57:10;99380.63;;;1.53;100.00
39265;BME280;42646;51.910;7.724;2024-01-15T03:59:40;99374.81;;;1.49;100.00
39265;BME280;42646;51.910;7.724;2024-01-15T04:02:08;99371.09;;;1.52;100.00
39265;BME280;42646;51.910;7.724;2024-01-15T04:04:35;99362.78;;;1.58;100.00
39265;BME280;42646;51.910;7.724;2024-01-15T04:07:05;99361.84;;;1.59;100.00
39265;BME280;42646;51.910;7.724;2024-01-15T04:09:32;99373.59;;;1.53;100.00
39265;BME280;42646;51.910;7.724;2024-01-15T04:12:00;99368.72;;;1.49;100.00
39265;BME280;42646;51.910;7.724;2024-01-15T04:14:28;99372.50;;;1.45;100.00
39265;BME280;42646;51.910;7.724;2024-01-15T04:16:56;99375.50;;;1.51;100.00
39265;BME280;42646;51.910;7.724;2024-01-15T04:19:23;99367.66;;;1.51;100.00
39265;BME280;42646;51.910;7.724;2024-01-15T04:21:51;99380.25;;;1.46;100.00
39265;BME280;42646;51.910;7.724;2024-01-15T04:24:20;99372.19;;;1.49;100.00
39265;BME280;42646;51.910;7.724;2024-01-15T04:26:48;99372.69;;;1.54;100.00
39265;BME280;42646;51.910;7.724;2024-01-15T04:29:15;99355.38;;;1.52;100.00
39265;BME280;42646;51.910;7.724;2024-01-15T04:31:43;99358.72;;;1.54;100.00
39265;BME280;42646;51.910;7.724;2024-01-15T04:34:11;99340.03;;;1.58;100.00
39265;BME280;42646;51.910;7.724;2024-01-15T04:36:39;99355.38;;;1.52;100.00
39265;BME280;42646;51.910;7.724;2024-01-15T04:39:07;99363.88;;;1.55;100.00
39265;BME280;42646;51.910;7.724;2024-01-15T04:41:36;99352.75;;;1.52;100.00
39265;BME280;42646;51.910;7.724;2024-01-15T04:44:04;99354.44;;;1.53;100.00
39265;BME280;42646;51.910;7.724;2024-01-15T04:46:32;99362.28;;;1.53;100.00
39265;BME280;42646;51.910;7.724;2024-01-15T04:48:59;99359.78;;;1.51;100.00
39265;BME280;42646;51.910;7.724;2024-01-15T04:51:27;99357.66;;;1.56;100.00
39265;BME280;42646;51.910;7.724;2024-01-15T04:53:55;99349.81;;;1.56;100.00
39265;BME280;42646;51.910;7.724;2024-01-15T04:56:22;99354.72;;;1.61;100.00
39265;BME280;42646;51.910;7.724;2024-01-15T04:58:51;99348.72;;;1.59;100.00
39265;BME280;42646;51.910;7.724;2024-01-15T05:01:19;99351.59;;;1.56;100.00
39265;BME280;42646;51.910;7.724;2024-01-15T05:03:47;99348.22;;;1.54;100.00
39265;BME280;42646;51.910;7.724;2024-01-15T05:06:16;99344.31;;;1.59;100.00
39265;BME280;42646;51.910;7.724;2024-01-15T05:08:43;99354.22;;;1.56;100.00
39265;BME280;42646;51.910;7.724;2024-01-15T05:11:11;99348.84;;;1.57;100.00
39265;BME280;42646;51.910;7.724;2024-01-15T05:13:39;99343.13;;;1.52;100.00
39265;BME280;42646;51.910;7.724;2024-01-15T05:16:08;99328.22;;;1.53;100.00
39265;BME280;42646;51.910;7.724;2024-01-15T05:18:35;99335.03;;;1.55;100.00
39265;BME280;42646;51.910;7.724;2024-01-15T05:21:04;99335.03;;;1.55;100.00
39265;BME280;42646;51.910;7.724;2024-01-15T05:23:32;99332.19;;;1.58;100.00
39265;BME280;42646;51.910;7.724;2024-01-15T05:26:00;99334.22;;;1.55;100.00
39265;BME280;42646;51.910;7.724;2024-01-15T05:28:27;99332.56;;;1.65;100.00
39265;BME280;42646;51.910;7.724;2024-01-15T05:30:56;99330.28;;;1.60;100.00
39265;BME280;42646;51.910;7.724;2024-01-15T05:33:25;99329.34;;;1.62;100.00
39265;BME280;42646;51.910;7.724;2024-01-15T05:35:53;99333.03;;;1.70;100.00
39265;BME280;42646;51.910;7.724;2024-01-15T05:38:21;99326.28;;;1.79;100.00
39265;BME280;42646;51.910;7.724;2024-01-15T05:40:48;99333.03;;;1.70;100.00
39265;BME280;42646;51.910;7.724;2024-01-15T05:43:16;99320.41;;;1.64;100.00
39265;BME280;42646;51.910;7.724;2024-01-15T05:45:43;99326.13;;;1.69;100.00
39265;BME280;42646;51.910;7.724;2024-01-15T05:48:12;99329.72;;;1.68;100.00
39265;BME280;42646;51.910;7.724;2024-01-15T05:50:41;99331.16;;;1.72;100.00
39265;BME280;42646;51.910;7.724;2024-01-15T05:53:09;99321.72;;;1.70;100.00
39265;BME280;42646;51.910;7.724;2024-01-15T05:55:37;99318.78;;;1.74;100.00
39265;BME280;42646;51.910;7.724;2024-01-15T05:58:05;99317.56;;;1.67;100.00
39265;BME280;42646;51.910;7.724;2024-01-15T06:00:32;99327.81;;;1.70;100.00
39265;BME280;42646;51.910;7.724;2024-01-15T06:03:02;99322.56;;;1.70;100.00
39265;BME280;42646;51.910;7.724;2024-01-15T06:05:30;99325.44;;;1.67;100.00
39265;BME280;42646;51.910;7.724;2024-01-15T06:07:59;99324.22;;;1.71;100.00
39265;BME280;42646;51.910;7.724;2024-01-15T06:10:26;99324.22;;;1.71;100.00
39265;BME280;42646;51.910;7.724;2024-01-15T06:12:54;99329.25;;;1.74;100.00
39265;BME280;42646;51.910;7.724;2024-01-15T06:15:22;99318.06;;;1.83;100.00
39265;BME280;42646;51.910;7.724;2024-01-15T06:17:49;99313.66;;;1.73;100.00
39265;BME280;42646;51.910;7.724;2024-01-15T06:20:17;99308.03;;;1.66;100.00
39265;BME280;42646;51.910;7.724;2024-01-15T06:22:45;99315.78;;;1.68;100.00
39265;BME280;42646;51.910;7.724;2024-01-15T06:25:14;99318.63;;;1.65;100.00
39265;BME280;42646;51.910;7.724;2024-01-15T06:27:41;99321.59;;;1.71;100.00
39265;BME280;42646;51.910;7.724;2024-01-15T06:30:10;99318.72;;;1.63;100.00
39265;BME280;42646;51.910;7.724;2024-01-15T06:32:38;99322.31;;;1.62;100.00
39265;BME280;42646;51.910;7.724;2024-01-15T06:35:07;99320.66;;;1.61;100.00
39265;BME280;42646;51.910;7.724;2024-01-15T06:37:37;99330.19;;;1.62;100.00
39265;BME280;42646;51.910;7.724;2024-01-15T06:40:05;99325.53;;;1.66;100.00
39265;BME280;42646;51.910;7.724;2024-01-15T06:42:35;99324.94;;;1.62;100.00
39265;BME280;42646;51.910;7.724;2024-01-15T06:45:03;99324.69;;;1.65;100.00
39265;BME280;42646;51.910;7.724;2024-01-15T06:47:31;99323.75;;;1.66;100.00
39265;BME280;42646;51.910;7.724;2024-01-15T06:49:59;99322.31;;;1.62;100.00
39265;BME280;42646;51.910;7.724;2024-01-15T06:52:27;99319.69;;;1.62;100.00
39265;BME280;42646;51.910;7.724;2024-01-15T06:54:54;99323.97;;;1.63;100.00
39265;BME280;42646;51.910;7.724;2024-01-15T06:57:22;99325.19;;;1.70;100.00
39265;BME280;42646;51.910;7.724;2024-01-15T06:59:51;99326.25;;;1.68;100.00
39265;BME280;42646;51.910;7.724;2024-01-15T07:02:19;99328.06;;;1.67;100.00
39265;BME280;42646;51.910;7.724;2024-01-15T07:04:46;99335.09;;;1.78;100.00
39265;BME280;42646;51.910;7.724;2024-01-15T07:07:14;99338.56;;;1.78;100.00
39265;BME280;42646;51.910;7.724;2024-01-15T07:09:42;99340.78;;;1.72;100.00
39265;BME280;42646;51.910;7.724;2024-01-15T07:12:10;99336.13;;;1.64;100.00
39265;BME280;42646;51.910;7.724;2024-01-15T07:14:38;99342.44;;;1.62;100.00
39265;BME280;42646;51.910;7.724;2024-01-15T07:17:07;99345.06;;;1.62;100.00
39265;BME280;42646;51.910;7.724;2024-01-15T07:19:34;99345.44;;;1.68;100.00
39265;BME280;42646;51.910;7.724;2024-01-15T07:22:02;99347.06;;;1.58;100.00
39265;BME280;42646;51.910;7.724;2024-01-15T07:24:30;99325.59;;;1.53;100.00
39265;BME280;42646;51.910;7.724;2024-01-15T07:27:00;99334.22;;;1.55;100.00
39265;BME280;42646;51.910;7.724;2024-01-15T07:29:31;99329.63;;;1.46;100.00
39265;BME280;42646;51.910;7.724;2024-01-15T07:31:59;99334.03;;;1.45;100.00
39265;BME280;42646;51.910;7.724;2024-01-15T07:34:28;99325.34;;;1.45;100.00
39265;BME280;42646;51.910;7.724;2024-01-15T07:36:56;99323.69;;;1.44;100.00
39265;BME280;42646;51.910;7.724;2024-01-15T07:39:24;99330.72;;;1.43;100.00
39265;BME280;42646;51.910;7.724;2024-01-15T07:41:52;99332.09;;;1.36;100.00
39265;BME280;42646;51.910;7.724;2024-01-15T07:44:20;99331.38;;;1.34;100.00
39265;BME280;42646;51.910;7.724;2024-01-15T07:46:47;99331.50;;;1.32;100.00
39265;BME280;42646;51.910;7.724;2024-01-15T07:49:15;99336.03;;;1.42;100.00
39265;BME280;42646;51.910;7.724;2024-01-15T07:51:45;99332.69;;;1.40;100.00
39265;BME280;42646;51.910;7.724;2024-01-15T07:54:13;99343.44;;;1.37;100.00
39265;BME280;42646;51.910;7.724;2024-01-15T07:56:53;99332.09;;;1.36;100.00
39265;BME280;42646;51.910;7.724;2024-01-15T07:59:21;99335.56;;;1.37;100.00
39265;BME280;42646;51.910;7.724;2024-01-15T08:01:49;99316.78;;;1.43;100.00
39265;BME280;42646;51.910;7.724;2024-01-15T08:04:17;99324.00;;;1.39;100.00
39265;BME280;42646;51.910;7.724;2024-01-15T08:06:46;99324.72;;;1.41;100.00
39265;BME280;42646;51.910;7.724;2024-01-15T08:09:14;99327.00;;;1.46;100.00
39265;BME280;42646;51.910;7.724;2024-01-15T08:11:42;99318.31;;;1.45;100.00
39265;BME280;42646;51.910;7.724;2024-01-15T08:14:11;99328.91;;;1.44;100.00
39265;BME280;42646;51.910;7.724;2024-01-15T08:16:39;99325.97;;;1.48;100.00
39265;BME280;42646;51.910;7.724;2024-01-15T08:19:07;99324.66;;;1.54;100.00
39265;BME280;42646;51.910;7.724;2024-01-15T08:21:35;99327.38;;;1.52;100.00
39265;BME280;42646;51.910;7.724;2024-01-15T08:24:04;99332.78;;;1.62;100.00
39265;BME280;42646;51.910;7.724;2024-01-15T08:26:32;99328.22;;;1.53;100.00
39265;BME280;42646;51.910;7.724;2024-01-15T08:29:00;99332.25;;;1.46;100.00
39265;BME280;42646;51.910;7.724;2024-01-15T08:31:28;99336.31;;;1.50;100.00
39265;BME280;42646;51.910;7.724;2024-01-15T08:33:55;99334.47;;;1.63;100.00
39265;BME280;42646;51.910;7.724;2024-01-15T08:36:24;99332.91;;;1.60;100.00
39265;BME280;42646;51.910;7.724;2024-01-15T08:38:52;99333.38;;;1.54;100.00
39265;BME280;42646;51.910;7.724;2024-01-15T08:41:21;99333.38;;;1.54;100.00
39265;BME280;42646;51.910;7.724;2024-01-15T08:43:49;99327.88;;;1.57;100.00
39265;BME280;42646;51.910;7.724;2024-01-15T08:46:16;99335.75;;;1.57;100.00
39265;BME280;42646;51.910;7.724;2024-01-15T08:48:44;99330.28;;;1.60;100.00
39265;BME280;42646;51.910;7.724;2024-01-15T08:51:12;99336.59;;;1.58;100.00
39265;BME280;42646;51.910;7.724;2024-01-15T08:53:39;99337.28;;;1.60;100.00
39265;BME280;42646;51.910;7.724;2024-01-15T08:56:07;99336.97;;;1.65;100.00
39265;BME280;42646;51.910;7.724;2024-01-15T08:58:36;99323.75;;;1.66;100.00
39265;BME280;42646;51.910;7.724;2024-01-15T09:01:04;99330.75;;;1.66;100.00
39265;BME280;42646;51.910;7.724;2024-01-15T09:03:32;99334.75;;;1.82;100.00
39265;BME280;42646;51.910;7.724;2024-01-15T09:06:00;99335.78;;;1.69;100.00
39265;BME280;42646;51.910;7.724;2024-01-15T09:08:28;99339.38;;;1.68;100.00
39265;BME280;42646;51.910;7.724;2024-01-15T09:10:56;99348.91;;;1.69;100.00
39265;BME280;42646;51.910;7.724;2024-01-15T09:13:24;99330.44;;;1.70;100.00
39265;BME280;42646;51.910;7.724;2024-01-15T09:15:53;99342.25;;;1.76;100.00
39265;BME280;42646;51.910;7.724;2024-01-15T09:18:20;99338.78;;;1.75;100.00
39265;BME280;42646;51.910;7.724;2024-01-15T09:20:48;99334.38;;;1.76;100.00
39265;BME280;42646;51.910;7.724;2024-01-15T09:23:16;99330.78;;;1.77;100.00
39265;BME280;42646;51.910;7.724;2024-01-15T09:25:44;99320.13;;;1.91;100.00
39265;BME280;42646;51.910;7.724;2024-01-15T09:28:11;99332.28;;;1.92;100.00
39265;BME280;42646;51.910;7.724;2024-01-15T09:30:40;99317.13;;;1.84;100.00
39265;BME280;42646;51.910;7.724;2024-01-15T09:33:09;99318.91;;;1.84;100.00
39265;BME280;42646;51.910;7.724;2024-01-15T09:35:37;99327.38;;;1.87;100.00
39265;BME280;42646;51.910;7.724;2024-01-15T09:38:04;99332.31;;;2.03;100.00
39265;BME280;42646;51.910;7.724;2024-01-15T09:40:32;99333.09;;;1.93;100.00
39265;BME280;42646;51.910;7.724;2024-01-15T09:43:01;99334.56;;;1.97;100.00
39265;BME280;42646;51.910;7.724;2024-01-15T09:54:19;99339.91;;;1.95;100.00
39265;BME280;42646;51.910;7.724;2024-01-15T09:56:47;99345.75;;;1.99;100.00
39265;BME280;42646;51.910;7.724;2024-01-15T09:59:16;99350.84;;;1.89;100.00
39265;BME280;42646;51.910;7.724;2024-01-15T10:01:45;99354.59;;;1.98;100.00
39265;BME280;42646;51.910;7.724;2024-01-15T10:04:14;99347.22;;;2.03;100.00
39265;BME280;42646;51.910;7.724;2024-01-15T10:06:44;99347.06;;;1.93;100.00
39265;BME280;42646;51.910;7.724;2024-01-15T10:09:13;99344.09;;;1.98;100.00
39265;BME280;42646;51.910;7.724;2024-01-15T10:11:43;99344.69;;;2.01;100.00
39265;BME280;42646;51.910;7.724;2024-01-15T10:14:12;99334.31;;;2.00;100.00
39265;BME280;42646;51.910;7.724;2024-01-15T10:16:40;99329.91;;;2.00;100.00
39265;BME280;42646;51.910;7.724;2024-01-15T10:19:08;99329.06;;;2.00;100.00
39265;BME280;42646;51.910;7.724;2024-01-15T10:21:37;99322.78;;;2.02;100.00
39265;BME280;42646;51.910;7.724;2024-01-15T10:24:05;99326.47;;;2.11;100.00
39265;BME280;42646;51.910;7.724;2024-01-15T10:26:32;99327.63;;;2.07;100.00
39265;BME280;42646;51.910;7.724;2024-01-15T10:29:02;99323.63;;;2.14;100.00
39265;BME280;42646;51.910;7.724;2024-01-15T10:31:30;99320.53;;;2.20;100.00
39265;BME280;42646;51.910;7.724;2024-01-15T10:34:10;99321.34;;;2.21;100.00
39265;BME280;42646;51.910;7.724;2024-01-15T10:36:39;99303.69;;;2.23;100.00
39265;BME280;42646;51.910;7.724;2024-01-15T10:39:07;99311.22;;;2.27;100.00
39265;BME280;42646;51.910;7.724;2024-01-15T10:41:35;99311.81;;;2.20;100.00
39265;BME280;42646;51.910;7.724;2024-01-15T10:44:04;99304.88;;;2.19;100.00
39265;BME280;42646;51.910;7.724;2024-01-15T10:46:33;99302.03;;;2.22;100.00
39265;BME280;42646;51.910;7.724;2024-01-15T10:49:01;99313.22;;;2.24;100.00
39265;BME280;42646;51.910;7.724;2024-01-15T10:51:29;99313.09;;;2.25;100.00
39265;BME280;42646;51.910;7.724;2024-01-15T10:53:59;99310.13;;;2.30;100.00
39265;BME280;42646;51.910;7.724;2024-01-15T10:56:27;99309.44;;;2.39;100.00
39265;BME280;42646;51.910;7.724;2024-01-15T10:58:57;99321.94;;;2.35;100.00
39265;BME280;42646;51.910;7.724;2024-01-15T11:01:28;99316.47;;;2.38;100.00
39265;BME280;42646;51.910;7.724;2024-01-15T11:03:57;99312.63;;;2.42;100.00
39265;BME280;42646;51.910;7.724;2024-01-15T11:06:27;99322.06;;;2.45;100.00
39265;BME280;42646;51.910;7.724;2024-01-15T11:08:56;99322.19;;;2.44;100.00
39265;BME280;42646;51.910;7.724;2024-01-15T11:11:25;99320.41;;;2.44;100.00
39265;BME280;42646;51.910;7.724;2024-01-15T11:13:53;99318.00;;;2.52;100.00
39265;BME280;42646;51.910;7.724;2024-01-15T11:16:21;99318.13;;;2.51;100.00
39265;BME280;42646;51.910;7.724;2024-01-15T11:19:02;99316.34;;;2.51;100.00
39265;BME280;42646;51.910;7.724;2024-01-15T11:21:32;99306.81;;;2.50;100.00
39265;BME280;42646;51.910;7.724;2024-01-15T11:24:02;99298.53;;;2.55;100.00
39265;BME280;42646;51.910;7.724;2024-01-15T11:26:35;99305.97;;;2.50;100.00
39265;BME280;42646;51.910;7.724;2024-01-15T11:29:04;99311.31;;;2.59;100.00
39265;BME280;42646;51.910;7.724;2024-01-15T11:31:58;99303.69;;;2.67;100.00
39265;BME280;42646;51.910;7.724;2024-01-15T11:34:51;99305.50;;;2.56;100.00
39265;BME280;42646;51.910;7.724;2024-01-15T11:37:19;99312.28;;;2.58;100.00
39265;BME280;42646;51.910;7.724;2024-01-15T11:39:48;99302.97;;;2.54;100.00
39265;BME280;42646;51.910;7.724;2024-01-15T11:42:16;99309.78;;;2.46;100.00
39265;BME280;42646;51.910;7.724;2024-01-15T11:44:45;99311.56;;;2.56;100.00
39265;BME280;42646;51.910;7.724;2024-01-15T11:47:13;99308.94;;;2.56;100.00
39265;BME280;42646;51.910;7.724;2024-01-15T11:49:59;99304.06;;;2.52;100.00
39265;BME280;42646;51.910;7.724;2024-01-15T11:52:33;99324.09;;;2.53;100.00
39265;BME280;42646;51.910;7.724;2024-01-15T11:55:06;99304.75;;;2.54;100.00
39265;BME280;42646;51.910;7.724;2024-01-15T11:57:41;99300.72;;;2.50;100.00
39265;BME280;42646;51.910;7.724;2024-01-15T12:00:10;99301.16;;;2.66;100.00
39265;BME280;42646;51.910;7.724;2024-01-15T12:02:39;99305.50;;;2.56;100.00
39265;BME280;42646;51.910;7.724;2024-01-15T12:05:08;99296.06;;;2.53;100.00
39265;BME280;42646;51.910;7.724;2024-01-15T12:07:36;99299.28;;;2.57;100.00
39265;BME280;42646;51.910;7.724;2024-01-15T12:10:08;99295.34;;;2.62;100.00
39265;BME280;42646;51.910;7.724;2024-01-15T12:12:44;99290.44;;;2.58;100.00
39265;BME280;42646;51.910;7.724;2024-01-15T12:15:15;99305.97;;;2.61;100.00
39265;BME280;42646;51.910;7.724;2024-01-15T12:17:42;99307.72;;;2.60;100.00
39265;BME280;42646;51.910;7.724;2024-01-15T12:20:12;99318.72;;;2.65;100.00
39265;BME280;42646;51.910;7.724;2024-01-15T12:22:40;99317.88;;;2.65;100.00
39265;BME280;42646;51.910;7.724;2024-01-15T12:25:26;99309.78;;;2.68;100.00
39265;BME280;42646;51.910;7.724;2024-01-15T12:27:55;99309.28;;;2.74;100.00
39265;BME280;42646;51.910;7.724;2024-01-15T12:30:23;99311.22;;;2.61;100.00
39265;BME280;42646;51.910;7.724;2024-01-15T12:32:51;99304.53;;;2.68;100.00
39265;BME280;42646;51.910;7.724;2024-01-15T12:35:21;99301.06;;;2.67;100.00
39265;BME280;42646;51.910;7.724;2024-01-15T12:37:48;99309.44;;;2.61;100.00
39265;BME280;42646;51.910;7.724;2024-01-15T12:40:19;99309.31;;;2.63;100.00
39265;BME280;42646;51.910;7.724;2024-01-15T12:42:47;99312.41;;;2.57;100.00
39265;BME280;42646;51.910;7.724;2024-01-15T12:45:15;99315.50;;;2.62;100.00
39265;BME280;42646;51.910;7.724;2024-01-15T12:47:43;99309.88;;;2.66;100.00
39265;BME280;42646;51.910;7.724;2024-01-15T12:50:11;99310.47;;;2.59;100.00
39265;BME280;42646;51.910;7.724;2024-01-15T12:52:47;99303.78;;;2.55;100.00
39265;BME280;42646;51.910;7.724;2024-01-15T12:55:15;99309.66;;;2.58;100.00
39265;BME280;42646;51.910;7.724;2024-01-15T12:57:43;99314.91;;;2.58;100.00
39265;BME280;42646;51.910;7.724;2024-01-15T13:00:13;99306.19;;;2.58;100.00
39265;BME280;42646;51.910;7.724;2024-01-15T13:02:41;99300.81;;;2.59;100.00
39265;BME280;42646;51.910;7.724;2024-01-15T13:05:11;99307.25;;;2.66;100.00
39265;BME280;42646;51.910;7.724;2024-01-15T13:07:41;99304.25;;;2.82;100.00
39265;BME280;42646;51.910;7.724;2024-01-15T13:10:11;99303.31;;;2.72;100.00
39265;BME280;42646;51.910;7.724;2024-01-15T13:12:40;99306.53;;;2.76;100.00
39265;BME280;42646;51.910;7.724;2024-01-15T13:15:09;99292.69;;;2.74;100.00
39265;BME280;42646;51.910;7.724;2024-01-15T13:17:40;99305.69;;;2.75;100.00